METAR AND TAF INFORMATION
METAR FOR KATL
ADDS - METARS form results

(2016 UTC 25 April 2018)
Data provider http://aviationweather.gov/adds/metars/
 
METAR text: KATL 251952Z 33015G20KT 10SM BKN035 BKN045 19/12 A2990 RMK AO2 SLP121 T01940122
Conditions at: KATL (ATLANTA , GA, US) observed 1952 UTC 25 April 2018
Temperature: 19.4°C (67°F)
Dewpoint: 12.2°C (54°F) [RH = 63%]
Pressure (altimeter): 29.90 inches Hg (1012.6 mb)
[Sea-level pressure: 1012.1 mb]
Winds: from the NNW (330 degrees) at 17 MPH (15 knots; 7.8 m/s)
gusting to 23 MPH (20 knots; 10.4 m/s)
Visibility: 10 or more miles (16+ km)
Ceiling: 3500 feet AGL
Clouds: broken clouds at 3500 feet AGL
broken clouds at 4500 feet AGL
Weather: no significant weather observed at this time

Forecast for: KATL (ATLANTA , GA, US)
Text: KATL 251935Z 2520/2624 32011G18KT P6SM BKN035
Forecast period: 2000 to 2200 UTC 25 April 2018
Forecast type: FROM: standard forecast or significant change
Winds: from the NW (320 degrees) at 13 MPH (11 knots; 5.7 m/s)
gusting to 21 MPH (18 knots; 9.4 m/s)
Visibility: 6 or more miles (10+ km)
Ceiling: 3500 feet AGL
Clouds: broken clouds at 3500 feet AGL
Weather: no significant weather forecast for this period
Forecast for: KATL (ATLANTA , GA, US)
Text: KATL 251935Z 2520/2624 32011G18KT P6SM BKN035
Forecast period: 2000 to 2200 UTC 25 April 2018
Forecast type: FROM: standard forecast or significant change
Winds: from the NW (320 degrees) at 13 MPH (11 knots; 5.7 m/s)
gusting to 21 MPH (18 knots; 9.4 m/s)
Visibility: 6 or more miles (10+ km)
Ceiling: 3500 feet AGL
Clouds: broken clouds at 3500 feet AGL
Weather: no significant weather forecast for this period
Forecast for: KATL (ATLANTA , GA, US)
Text: KATL 251935Z 2520/2624 32011G18KT P6SM BKN035
Forecast period: 2200 UTC 25 April 2018 to 0000 UTC 26 April 2018
Forecast type: FROM: standard forecast or significant change
Winds: from the NW (310 degrees) at 12 MPH (10 knots; 5.2 m/s)
gusting to 21 MPH (18 knots; 9.4 m/s)
Visibility: 6 or more miles (10+ km)
Clouds: scattered clouds at 4000 feet AGL
Weather: no significant weather forecast for this period
Forecast for: KATL (ATLANTA , GA, US)
Text: KATL 251935Z 2520/2624 32011G18KT P6SM BKN035
Forecast period: 2200 UTC 25 April 2018 to 0000 UTC 26 April 2018
Forecast type: FROM: standard forecast or significant change
Winds: from the NW (310 degrees) at 12 MPH (10 knots; 5.2 m/s)
gusting to 21 MPH (18 knots; 9.4 m/s)
Visibility: 6 or more miles (10+ km)
Clouds: scattered clouds at 4000 feet AGL
Weather: no significant weather forecast for this period
Forecast for: KATL (ATLANTA , GA, US)
Text: KATL 251935Z 2520/2624 32011G18KT P6SM BKN035
Forecast period: 0000 to 0300 UTC 26 April 2018
Forecast type: FROM: standard forecast or significant change
Winds: from the NW (310 degrees) at 12 MPH (10 knots; 5.2 m/s)
Visibility: 6 or more miles (10+ km)
Clouds: scattered clouds at 12000 feet AGL
Weather: no significant weather forecast for this period
Forecast for: KATL (ATLANTA , GA, US)
Text: KATL 251935Z 2520/2624 32011G18KT P6SM BKN035
Forecast period: 0000 to 0300 UTC 26 April 2018
Forecast type: FROM: standard forecast or significant change
Winds: from the NW (310 degrees) at 12 MPH (10 knots; 5.2 m/s)
Visibility: 6 or more miles (10+ km)
Clouds: scattered clouds at 12000 feet AGL
Weather: no significant weather forecast for this period
Forecast for: KATL (ATLANTA , GA, US)
Text: KATL 251935Z 2520/2624 32011G18KT P6SM BKN035
Forecast period: 0300 to 1100 UTC 26 April 2018
Forecast type: FROM: standard forecast or significant change
Winds: from the NW (310 degrees) at 7 MPH (6 knots; 3.1 m/s)
Visibility: 6 or more miles (10+ km)
Clouds: scattered clouds at 25000 feet AGL
Weather: no significant weather forecast for this period
Forecast for: KATL (ATLANTA , GA, US)
Text: KATL 251935Z 2520/2624 32011G18KT P6SM BKN035
Forecast period: 0300 to 1100 UTC 26 April 2018
Forecast type: FROM: standard forecast or significant change
Winds: from the NW (310 degrees) at 7 MPH (6 knots; 3.1 m/s)
Visibility: 6 or more miles (10+ km)
Clouds: scattered clouds at 25000 feet AGL
Weather: no significant weather forecast for this period
Forecast for: KATL (ATLANTA , GA, US)
Text: KATL 251935Z 2520/2624 32011G18KT P6SM BKN035
Forecast period: 1100 to 1500 UTC 26 April 2018
Forecast type: FROM: standard forecast or significant change
Winds: from the NNE (20 degrees) at 6 MPH (5 knots; 2.6 m/s)
Visibility: 6 or more miles (10+ km)
Ceiling: 10000 feet AGL
Clouds: broken clouds at 10000 feet AGL
Weather: no significant weather forecast for this period
Forecast for: KATL (ATLANTA , GA, US)
Text: KATL 251935Z 2520/2624 32011G18KT P6SM BKN035
Forecast period: 1100 to 1500 UTC 26 April 2018
Forecast type: FROM: standard forecast or significant change
Winds: from the NNE (20 degrees) at 6 MPH (5 knots; 2.6 m/s)
Visibility: 6 or more miles (10+ km)
Ceiling: 10000 feet AGL
Clouds: broken clouds at 10000 feet AGL
Weather: no significant weather forecast for this period
Forecast for: KATL (ATLANTA , GA, US)
Text: KATL 251935Z 2520/2624 32011G18KT P6SM BKN035
Forecast period: 1500 to 1800 UTC 26 April 2018
Forecast type: FROM: standard forecast or significant change
Winds: from the SE (140 degrees) at 8 MPH (7 knots; 3.6 m/s)
Visibility: 6 or more miles (10+ km)
Ceiling: 2000 feet AGL
Clouds: overcast cloud deck at 2000 feet AGL
Weather: VCSH  (showers in vicinity)
Forecast for: KATL (ATLANTA , GA, US)
Text: KATL 251935Z 2520/2624 32011G18KT P6SM BKN035
Forecast period: 1500 to 1800 UTC 26 April 2018
Forecast type: FROM: standard forecast or significant change
Winds: from the SE (140 degrees) at 8 MPH (7 knots; 3.6 m/s)
Visibility: 6 or more miles (10+ km)
Ceiling: 2000 feet AGL
Clouds: overcast cloud deck at 2000 feet AGL
Weather: VCSH  (showers in vicinity)
Forecast for: KATL (ATLANTA , GA, US)
Text: KATL 251935Z 2520/2624 32011G18KT P6SM BKN035
Forecast period: 1800 UTC 26 April 2018 to 0000 UTC 27 April 2018
Forecast type: FROM: standard forecast or significant change
Winds: from the S (170 degrees) at 10 MPH (9 knots; 4.7 m/s)
Visibility: 6 miles (10 km)
Ceiling: 2500 feet AGL
Clouds: broken clouds at 2500 feet AGL
overcast cloud deck at 4000 feet AGL
Weather: -SHRA  (light rain showers)
Forecast for: KATL (ATLANTA , GA, US)
Text: KATL 251935Z 2520/2624 32011G18KT P6SM BKN035
Forecast period: 1800 UTC 26 April 2018 to 0000 UTC 27 April 2018
Forecast type: FROM: standard forecast or significant change
Winds: from the S (170 degrees) at 10 MPH (9 knots; 4.7 m/s)
Visibility: 6 miles (10 km)
Ceiling: 2500 feet AGL
Clouds: broken clouds at 2500 feet AGL
overcast cloud deck at 4000 feet AGL
Weather: -SHRA  (light rain showers)
Forecast for: KATL (ATLANTA , GA, US)
Text: KATL 251935Z 2520/2624 32011G18KT P6SM BKN035
Forecast period: 1800 to 2200 UTC 26 April 2018
Forecast type: PROBABLE: 30 percent likelihood of the following during this time
Visibility: 3 miles (5 km)
Ceiling: 1500 feet AGL
Clouds: broken clouds at 1500 feet AGL
Weather: -TSRA  (light rain associated with thunderstorm(s))
Forecast for: KATL (ATLANTA , GA, US)
Text: KATL 251935Z 2520/2624 32011G18KT P6SM BKN035
Forecast period: 1800 to 2200 UTC 26 April 2018
Forecast type: PROBABLE: 30 percent likelihood of the following during this time
Visibility: 3 miles (5 km)
Ceiling: 1500 feet AGL
Clouds: broken clouds at 1500 feet AGL
Weather: -TSRA  (light rain associated with thunderstorm(s))

 AIRPORT MAP

 RUNWAY INFORMATION
Runway 08L Runway length 9000 ft Runway width 150 ft
Runway elevation 1015 ft Runway displaced threshold 0 ft Runway heading 90
Runway 26R Runway length 9000 ft Runway width 150 ft
Runway elevation 990 ft Runway displaced threshold 0 ft Runway heading 270
Runway 08R Runway length 10000 ft Runway width 150 ft
Runway elevation 1024 ft Runway displaced threshold 0 ft Runway heading 90
Runway 26L Runway length 10000 ft Runway width 150 ft
Runway elevation 995 ft Runway displaced threshold 0 ft Runway heading 270
Runway 09L Runway length 11890 ft Runway width 150 ft
Runway elevation 1019 ft Runway displaced threshold 0 ft Runway heading 90
Runway 27R Runway length 11890 ft Runway width 150 ft
Runway elevation 978 ft Runway displaced threshold 0 ft Runway heading 270
Runway 09R Runway length 9001 ft Runway width 150 ft
Runway elevation 1026 ft Runway displaced threshold 0 ft Runway heading 90
Runway 27L Runway length 9001 ft Runway width 150 ft
Runway elevation 985 ft Runway displaced threshold 0 ft Runway heading 270
Runway 10 Runway length 9000 ft Runway width 150 ft
Runway elevation 1000 ft Runway displaced threshold 0 ft Runway heading 90
Runway 28 Runway length 9000 ft Runway width 150 ft
Runway elevation 998 ft Runway displaced threshold 0 ft Runway heading 270

 AIRPORT FREQUENCIES
Type APP Name ATLANTA AP Frequency 118.35 MHZ
Type ATIS Name ATIS Frequency 119.65 MHZ
Type CLD Name CLNC DEL Frequency 118.1 MHZ
Type DEP Name ATLANTA DE Frequency 125 MHZ
Type GND Name GND Frequency 121.65 MHZ
Type RDO Name MACON RDO Frequency 116.9 MHZ
Type SFA Name SFA Frequency 30.697 MHZ
Type TWR Name ATLANTA TW Frequency 119.1 MHZ
Type UNIC Name UNICOM Frequency 122.95 MHZ

 AIRPORT NEAR NAVIGATION AIDS
Type NDB Name Catta Frequency 375 KHZ
Type VORTAC Name Atlanta Frequency 116900 KHZ
Type NDB Name Redan Frequency 266 KHZ



Powered by Virtual Airlines Manager [v2.6.2]